Time;durP1;ratioP1;P1;durP2;ratioP2;P2;SDS_P1;SDS_P2;PMS_P1;PMS_P2;Temp;Humidity;BMP_temperature;BMP_pressure;BME280_temperature;BME280_humidity;BME280_pressure;Samples;Min_cycle;Max_cycle;Signal;HPM_P1;HPM_P2
2023/12/03 00:02:02;;;;;;;26.95;14.23;;;4.00;92.00;;;;;;4266721;27;20050;-57
2023/12/03 00:04:04;;;;;;;23.10;13.32;;;4.10;92.50;;;;;;4266790;27;20053;-58
2023/12/03 00:06:08;;;;;;;26.17;14.27;;;4.20;92.30;;;;;;4266369;27;20051;-57
2023/12/03 00:08:11;;;;;;;26.88;13.95;;;4.20;92.40;;;;;;4265626;27;20047;-57
2023/12/03 00:10:14;;;;;;;22.08;13.38;;;4.10;91.80;;;;;;4265756;27;20068;-57
2023/12/03 00:12:17;;;;;;;24.35;12.20;;;4.00;91.70;;;;;;4265846;27;20050;-57
2023/12/03 00:14:19;;;;;;;23.52;14.27;;;3.90;92.00;;;;;;4266305;27;20472;-55
2023/12/03 00:16:22;;;;;;;24.60;13.98;;;3.90;91.30;;;;;;4266753;27;20606;-55
2023/12/03 00:18:25;;;;;;;28.20;14.10;;;4.00;92.10;;;;;;4265734;27;20082;-55
2023/12/03 00:20:29;;;;;;;21.85;12.60;;;3.90;91.40;;;;;;4265767;27;20043;-57
2023/12/03 00:22:31;;;;;;;22.02;13.00;;;3.90;91.90;;;;;;4265836;27;20091;-56
2023/12/03 00:24:33;;;;;;;21.25;12.88;;;3.90;92.00;;;;;;4265051;27;20058;-57
2023/12/03 00:26:37;;;;;;;21.77;13.85;;;4.10;91.80;;;;;;4246862;27;20100;-57
2023/12/03 00:28:40;;;;;;;23.27;13.43;;;4.10;91.90;;;;;;4264728;27;20480;-58
2023/12/03 00:30:42;;;;;;;24.60;14.38;;;4.20;91.80;;;;;;4265346;27;20081;-56
2023/12/03 00:32:46;;;;;;;23.60;13.20;;;4.10;91.90;;;;;;4265610;27;20462;-56
2023/12/03 00:34:48;;;;;;;21.83;12.50;;;4.00;92.10;;;;;;4267219;27;20039;-56
2023/12/03 00:36:51;;;;;;;21.05;12.60;;;4.10;92.30;;;;;;4248496;27;20509;-57
2023/12/03 00:38:53;;;;;;;23.88;14.88;;;4.10;91.90;;;;;;4265363;27;20050;-57
2023/12/03 00:40:55;;;;;;;24.92;15.50;;;4.10;91.60;;;;;;4265188;27;20070;-56
2023/12/03 00:42:57;;;;;;;26.92;15.57;;;4.10;91.50;;;;;;4264550;27;20058;-58
2023/12/03 00:44:59;;;;;;;25.60;14.23;;;3.90;91.50;;;;;;4265188;27;20066;-56
2023/12/03 00:47:02;;;;;;;29.48;15.00;;;3.80;91.60;;;;;;4247099;28;20551;-56
2023/12/03 00:49:06;;;;;;;24.05;15.02;;;3.80;91.10;;;;;;4266100;27;20043;-57
2023/12/03 00:51:09;;;;;;;26.20;15.23;;;3.90;91.30;;;;;;4266458;27;20077;-57
2023/12/03 00:53:11;;;;;;;26.63;14.07;;;3.70;91.10;;;;;;4248480;27;20071;-71
2023/12/03 00:55:14;;;;;;;22.42;14.35;;;4.00;92.30;;;;;;4266885;27;20082;-57
2023/12/03 00:57:18;;;;;;;;;;;4.10;92.20;;;;;;4266229;27;20161;-57
2023/12/03 00:59:20;;;;;;;25.30;14.35;;;4.00;91.00;;;;;;4267236;27;19952;-56
2023/12/03 01:01:22;;;;;;;24.60;13.88;;;3.90;91.20;;;;;;4265524;27;20489;-57
2023/12/03 01:03:24;;;;;;;29.00;16.50;;;3.80;91.10;;;;;;4265609;27;20507;-57
2023/12/03 01:05:28;;;;;;;23.27;13.70;;;3.70;90.80;;;;;;4265512;27;20045;-56
2023/12/03 01:07:30;;;;;;;26.30;15.10;;;3.70;91.60;;;;;;4265232;27;20503;-57
2023/12/03 01:09:33;;;;;;;29.42;16.92;;;3.60;91.30;;;;;;4265154;27;20047;-57
2023/12/03 01:11:39;;;;;;;25.13;15.82;;;3.60;91.90;;;;;;4264891;27;20081;-58
2023/12/03 01:13:42;;;;;;;27.70;17.00;;;3.60;91.50;;;;;;4265120;27;20049;-57
2023/12/03 01:15:45;;;;;;;29.15;16.98;;;3.70;91.50;;;;;;4265262;27;20058;-57
2023/12/03 01:17:47;;;;;;;29.23;17.40;;;3.80;92.10;;;;;;4265781;27;20054;-57
2023/12/03 01:19:49;;;;;;;29.00;17.30;;;3.70;91.00;;;;;;4265974;27;20047;-57
2023/12/03 01:21:52;;;;;;;30.35;18.65;;;3.70;91.40;;;;;;4247979;27;20039;-59
2023/12/03 01:23:54;;;;;;;28.23;16.95;;;3.70;91.60;;;;;;4266203;27;20049;-56
2023/12/03 01:25:57;;;;;;;29.58;16.05;;;3.80;91.90;;;;;;4266672;27;20043;-57
2023/12/03 01:27:59;;;;;;;34.72;18.20;;;3.70;92.20;;;;;;4266734;27;20050;-56
2023/12/03 01:30:01;;;;;;;31.48;18.77;;;3.80;91.80;;;;;;4266553;27;20072;-56
2023/12/03 01:32:05;;;;;;;27.10;16.45;;;3.70;91.80;;;;;;4265788;27;20047;-56
2023/12/03 01:34:07;;;;;;;30.77;17.90;;;3.70;92.10;;;;;;4265759;27;20395;-55
2023/12/03 01:36:09;;;;;;;30.30;18.90;;;3.60;91.50;;;;;;4265812;27;20050;-57
2023/12/03 01:38:13;;;;;;;30.80;18.42;;;3.50;91.40;;;;;;4265442;27;20043;-57
2023/12/03 01:40:15;;;;;;;29.98;18.45;;;3.40;91.30;;;;;;4249401;27;20516;-56
2023/12/03 01:42:17;;;;;;;32.60;19.25;;;3.50;91.40;;;;;;4267979;27;20051;-57
2023/12/03 01:44:19;;;;;;;28.33;16.42;;;3.50;91.70;;;;;;4267860;27;20072;-57
2023/12/03 01:46:22;;;;;;;28.05;16.38;;;3.50;91.90;;;;;;4249044;27;20509;-56
2023/12/03 01:48:26;;;;;;;33.03;19.52;;;3.70;92.50;;;;;;4250061;27;20069;-55
2023/12/03 01:50:30;;;;;;;34.33;19.15;;;3.60;91.30;;;;;;4267839;27;20046;-55
2023/12/03 01:52:33;;;;;;;35.10;20.92;;;3.60;91.70;;;;;;4268395;27;20113;-56
2023/12/03 01:54:41;;;;;;;30.20;17.27;;;3.60;91.60;;;;;;4267699;27;20424;-54
2023/12/03 01:56:44;;;;;;;31.95;18.85;;;3.60;92.00;;;;;;4267915;27;20050;-54
2023/12/03 01:58:46;;;;;;;31.00;17.52;;;3.60;91.70;;;;;;4267501;27;20130;-62
2023/12/03 02:00:48;;;;;;;34.55;19.20;;;3.60;92.00;;;;;;4268181;27;20126;-57
2023/12/03 02:02:51;;;;;;;27.02;16.27;;;3.60;91.60;;;;;;4268383;27;20042;-58
2023/12/03 02:04:54;;;;;;;31.90;18.33;;;3.60;91.90;;;;;;4267914;27;20043;-54
2023/12/03 02:06:59;;;;;;;30.17;17.98;;;3.70;92.20;;;;;;4267736;27;20075;-54
2023/12/03 02:09:01;;;;;;;31.95;18.30;;;3.70;91.80;;;;;;4267661;27;20051;-55
2023/12/03 02:11:06;;;;;;;32.50;19.00;;;3.60;92.00;;;;;;4250022;27;20047;-55
2023/12/03 02:13:08;;;;;;;35.95;19.75;;;3.50;92.20;;;;;;4268707;27;20046;-54
2023/12/03 02:15:11;;;;;;;38.83;20.55;;;3.50;92.20;;;;;;4268267;27;20047;-54
2023/12/03 02:17:13;;;;;;;30.52;18.23;;;3.50;92.40;;;;;;4268161;27;20080;-55
2023/12/03 02:19:15;;;;;;;35.85;20.83;;;3.50;92.50;;;;;;4267737;27;20050;-56
2023/12/03 02:21:18;;;;;;;32.03;18.73;;;3.40;91.90;;;;;;4249060;27;20509;-58
2023/12/03 02:23:21;;;;;;;35.72;19.92;;;3.40;92.20;;;;;;4269460;27;20049;-58
2023/12/03 02:25:23;;;;;;;41.55;22.30;;;3.40;92.70;;;;;;4267984;27;20055;-57
2023/12/03 02:27:26;;;;;;;34.38;19.25;;;3.50;92.10;;;;;;4268728;27;20087;-58
2023/12/03 02:29:28;;;;;;;36.55;20.58;;;3.40;92.40;;;;;;4268282;27;20039;-58
2023/12/03 02:31:30;;;;;;;31.40;18.88;;;3.30;92.60;;;;;;4269086;27;20401;-55
2023/12/03 02:33:32;;;;;;;37.10;20.05;;;3.30;93.00;;;;;;4268376;27;20039;-55
2023/12/03 02:35:35;;;;;;;33.17;20.15;;;3.20;93.00;;;;;;4268112;27;20054;-55
2023/12/03 02:37:37;;;;;;;34.28;19.55;;;3.30;92.60;;;;;;4267236;27;20042;-56
2023/12/03 02:39:40;;;;;;;38.10;21.20;;;3.20;92.70;;;;;;4266811;27;20434;-57
2023/12/03 02:41:43;;;;;;;33.90;19.80;;;3.30;92.90;;;;;;4267245;27;20043;-56
2023/12/03 02:43:45;;;;;;;33.08;18.50;;;3.40;92.80;;;;;;4267098;27;20100;-54
2023/12/03 02:45:47;;;;;;;33.70;20.45;;;3.30;92.70;;;;;;4248730;27;20101;-57
2023/12/03 02:47:49;;;;;;;36.58;20.40;;;3.30;92.90;;;;;;4266661;27;20049;-57
2023/12/03 02:49:52;;;;;;;32.97;19.63;;;3.10;92.40;;;;;;4267041;27;20408;-55
2023/12/03 02:51:54;;;;;;;35.00;19.95;;;3.10;92.70;;;;;;4267614;27;20126;-60
2023/12/03 02:53:56;;;;;;;39.90;21.52;;;3.10;92.80;;;;;;4267598;27;20122;-57
2023/12/03 02:56:00;;;;;;;29.98;17.73;;;3.00;92.50;;;;;;4231039;28;20056;-57
2023/12/03 02:58:02;;;;;;;34.85;19.83;;;3.00;93.20;;;;;;4266775;27;20122;-56
2023/12/03 03:00:06;;;;;;;38.15;20.02;;;2.90;92.40;;;;;;4266611;27;20053;-57
2023/12/03 03:02:08;;;;;;;41.03;20.80;;;3.00;92.80;;;;;;4249279;27;20047;-55
2023/12/03 03:04:10;;;;;;;34.70;18.10;;;3.00;93.00;;;;;;4268749;27;20078;-58
2023/12/03 03:06:12;;;;;;;36.55;21.15;;;3.20;93.20;;;;;;4268908;27;20130;-59
2023/12/03 03:08:14;;;;;;;30.83;18.58;;;3.10;92.20;;;;;;4267302;27;20043;-55
2023/12/03 03:10:17;;;;;;;37.47;19.75;;;3.00;92.70;;;;;;4267429;27;20046;-55
2023/12/03 03:12:20;;;;;;;31.63;18.55;;;3.10;93.00;;;;;;4266939;27;20474;-55
2023/12/03 03:14:22;;;;;;;30.42;18.23;;;3.00;92.80;;;;;;4248132;27;20151;-55
2023/12/03 03:16:27;;;;;;;32.63;18.48;;;3.20;93.10;;;;;;4266269;27;20058;-57
2023/12/03 03:18:29;;;;;;;31.52;18.77;;;3.10;93.10;;;;;;4266832;27;20074;-55
2023/12/03 03:20:31;;;;;;;33.78;19.42;;;3.20;92.60;;;;;;4267271;27;20393;-55
2023/12/03 03:22:33;;;;;;;28.52;17.02;;;3.30;92.30;;;;;;4266571;27;20053;-57
2023/12/03 03:24:36;;;;;;;34.50;19.45;;;3.30;92.30;;;;;;4266205;27;20075;-57
2023/12/03 03:26:39;;;;;;;33.38;18.90;;;3.20;91.90;;;;;;4267284;27;20046;-58
2023/12/03 03:28:43;;;;;;;32.30;19.13;;;3.10;92.00;;;;;;4248333;27;20047;-57
2023/12/03 03:30:46;;;;;;;27.95;15.05;;;3.00;91.80;;;;;;4266982;27;20095;-57
2023/12/03 03:32:48;;;;;;;32.42;18.88;;;2.90;91.70;;;;;;4268466;27;20098;-58
2023/12/03 03:34:50;;;;;;;32.05;17.60;;;2.90;91.90;;;;;;4267656;27;20365;-57
2023/12/03 03:36:52;;;;;;;31.27;18.48;;;2.90;92.10;;;;;;4266142;27;20045;-58
2023/12/03 03:38:54;;;;;;;33.45;18.95;;;3.00;92.50;;;;;;4266890;27;20413;-58
2023/12/03 03:40:57;;;;;;;32.17;18.17;;;2.90;92.10;;;;;;4267238;27;20454;-60
2023/12/03 03:43:03;;;;;;;34.08;19.33;;;3.00;92.40;;;;;;4267319;27;20050;-62
2023/12/03 03:45:09;;;;;;;33.75;19.02;;;2.90;92.20;;;;;;4266802;27;20486;-54
2023/12/03 03:47:12;;;;;;;33.83;20.45;;;2.90;92.60;;;;;;4266111;27;20042;-55
2023/12/03 03:49:14;;;;;;;33.90;18.45;;;3.00;92.50;;;;;;4266384;27;20046;-56
2023/12/03 03:51:17;;;;;;;37.80;22.17;;;3.00;92.70;;;;;;4265151;27;20126;-59
2023/12/03 03:53:19;;;;;;;32.25;18.60;;;3.00;92.40;;;;;;4247892;27;20102;-55
2023/12/03 03:55:21;;;;;;;34.22;20.35;;;3.00;92.80;;;;;;4266229;27;20076;-56
2023/12/03 03:57:23;;;;;;;31.33;18.63;;;3.00;92.40;;;;;;4266205;27;20102;-62
2023/12/03 03:59:26;;;;;;;33.30;19.13;;;3.00;92.50;;;;;;4266276;27;20043;-56
2023/12/03 04:01:30;;;;;;;33.25;19.58;;;3.00;92.60;;;;;;4266193;27;20046;-58
2023/12/03 04:03:33;;;;;;;34.88;21.10;;;3.00;92.60;;;;;;4265703;27;20049;-57
2023/12/03 04:05:36;;;;;;;33.05;19.95;;;3.00;92.50;;;;;;4266181;27;20515;-59
2023/12/03 04:07:39;;;;;;;33.83;18.83;;;3.10;92.60;;;;;;4266974;27;20122;-55
2023/12/03 04:09:41;;;;;;;37.13;19.90;;;3.00;92.80;;;;;;4266705;27;20049;-54
2023/12/03 04:11:44;;;;;;;35.88;20.77;;;3.00;92.90;;;;;;4268172;27;20457;-56
2023/12/03 04:13:46;;;;;;;36.80;20.95;;;3.00;92.40;;;;;;4267876;27;20541;-57
2023/12/03 04:15:49;;;;;;;33.25;19.48;;;3.10;92.80;;;;;;4268400;27;20046;-56
2023/12/03 04:17:52;;;;;;;34.95;19.58;;;3.00;92.60;;;;;;4266874;27;20044;-57
2023/12/03 04:19:54;;;;;;;36.45;20.27;;;3.00;92.40;;;;;;4265263;27;20107;-56
2023/12/03 04:21:56;;;;;;;38.35;20.23;;;3.00;92.60;;;;;;4265888;27;20046;-57
2023/12/03 04:23:59;;;;;;;33.03;20.08;;;2.90;92.60;;;;;;4265404;27;20039;-56
2023/12/03 04:26:01;;;;;;;36.10;20.25;;;2.90;92.60;;;;;;4265464;27;20060;-56
2023/12/03 04:28:04;;;;;;;35.75;21.25;;;2.90;92.70;;;;;;4264894;27;20053;-57
2023/12/03 04:30:07;;;;;;;36.80;20.20;;;2.90;92.70;;;;;;4265022;27;20122;-57
2023/12/03 04:32:09;;;;;;;39.72;21.42;;;2.90;92.80;;;;;;4265950;27;20512;-57
2023/12/03 04:34:13;;;;;;;37.53;21.05;;;2.80;92.30;;;;;;4265467;27;20047;-56
2023/12/03 04:36:15;;;;;;;37.13;21.20;;;2.80;92.70;;;;;;4264959;27;20046;-55
2023/12/03 04:38:20;;;;;;;38.65;21.45;;;2.70;92.70;;;;;;4264952;27;20047;-54
2023/12/03 04:40:24;;;;;;;;;;;2.70;93.00;;;;;;4265879;27;20057;-58
2023/12/03 04:42:27;;;;;;;37.72;20.92;;;2.70;92.80;;;;;;4266993;27;19919;-57
2023/12/03 04:44:31;;;;;;;35.60;21.00;;;2.60;93.00;;;;;;4248798;28;20401;-57
2023/12/03 04:46:34;;;;;;;36.78;21.42;;;2.70;93.10;;;;;;4265480;27;20050;-57
2023/12/03 04:48:40;;;;;;;38.33;21.55;;;2.60;92.80;;;;;;4264879;27;20054;-57
2023/12/03 04:50:44;;;;;;;37.10;21.83;;;2.60;93.40;;;;;;4265016;27;20060;-58
2023/12/03 04:52:46;;;;;;;37.15;22.83;;;2.70;93.10;;;;;;4266137;27;20054;-57
2023/12/03 04:54:48;;;;;;;40.08;21.85;;;2.60;93.20;;;;;;4265926;27;20074;-58
2023/12/03 04:56:50;;;;;;;38.17;21.73;;;2.60;93.10;;;;;;4265565;27;20082;-57
2023/12/03 04:58:52;;;;;;;38.33;23.10;;;2.60;93.20;;;;;;4265253;27;20532;-65
2023/12/03 05:00:54;;;;;;;48.63;22.67;;;2.60;93.20;;;;;;4245813;28;20051;-58
2023/12/03 05:02:56;;;;;;;40.90;24.05;;;2.70;93.20;;;;;;4264367;27;20088;-57
2023/12/03 05:04:59;;;;;;;38.53;21.45;;;2.70;93.10;;;;;;4263841;27;20050;-58
2023/12/03 05:07:03;;;;;;;37.10;20.85;;;2.60;93.20;;;;;;4264088;27;20053;-57
2023/12/03 05:09:05;;;;;;;26.90;16.20;;;2.70;93.40;;;;;;4245804;27;20382;-57
2023/12/03 05:11:08;;;;;;;33.92;18.95;;;2.60;93.40;;;;;;4264183;27;20046;-57
2023/12/03 05:13:10;;;;;;;41.15;22.90;;;2.70;93.80;;;;;;4264153;27;20067;-57
2023/12/03 05:15:12;;;;;;;37.33;22.48;;;2.80;93.50;;;;;;4267064;27;20485;-55
2023/12/03 05:17:14;;;;;;;39.47;22.80;;;2.80;93.40;;;;;;4267501;27;20050;-58
2023/12/03 05:19:16;;;;;;;38.97;22.40;;;2.70;93.00;;;;;;4248823;27;20088;-56
2023/12/03 05:21:18;;;;;;;35.90;20.95;;;2.70;93.30;;;;;;4267260;27;20058;-57
2023/12/03 05:23:22;;;;;;;39.67;22.60;;;2.80;93.40;;;;;;4267251;27;20038;-57
2023/12/03 05:25:24;;;;;;;33.72;20.17;;;2.80;93.20;;;;;;4267271;27;20050;-58
2023/12/03 05:27:27;;;;;;;35.75;21.35;;;2.80;93.10;;;;;;4267601;27;20069;-56
2023/12/03 05:29:29;;;;;;;34.25;21.42;;;2.70;93.10;;;;;;4267146;27;20045;-54
2023/12/03 05:31:31;;;;;;;37.42;22.20;;;2.90;93.70;;;;;;4267321;27;20087;-54
2023/12/03 05:33:33;;;;;;;38.17;22.30;;;3.00;93.20;;;;;;4267038;27;20054;-59
2023/12/03 05:35:36;;;;;;;37.65;22.88;;;3.00;93.10;;;;;;4248785;27;20085;-55
2023/12/03 05:37:38;;;;;;;38.20;22.40;;;2.80;92.90;;;;;;4267756;27;20043;-55
2023/12/03 05:39:42;;;;;;;41.42;23.45;;;2.70;93.10;;;;;;4267753;27;20095;-55
2023/12/03 05:41:44;;;;;;;40.45;23.42;;;2.80;93.50;;;;;;4267889;27;20049;-54
2023/12/03 05:43:47;;;;;;;37.22;23.10;;;2.80;93.30;;;;;;4268076;27;20130;-54
2023/12/03 05:45:50;;;;;;;39.83;23.60;;;2.80;93.10;;;;;;4268201;27;20209;-55
2023/12/03 05:47:52;;;;;;;36.78;22.85;;;2.90;93.10;;;;;;4267386;27;20485;-55
2023/12/03 05:49:54;;;;;;;43.80;24.42;;;2.90;93.50;;;;;;4267680;27;20549;-55
2023/12/03 05:51:56;;;;;;;42.45;23.00;;;3.00;93.00;;;;;;4267821;27;20046;-55
2023/12/03 05:53:59;;;;;;;41.35;24.38;;;3.00;93.00;;;;;;4267410;27;20049;-55
2023/12/03 05:56:05;;;;;;;40.60;24.90;;;2.90;93.00;;;;;;4267239;27;20122;-57
2023/12/03 05:58:07;;;;;;;40.42;23.10;;;2.90;93.30;;;;;;4267425;27;20506;-57
2023/12/03 06:00:10;;;;;;;43.00;24.77;;;2.90;93.20;;;;;;4249334;27;20096;-58
2023/12/03 06:02:14;;;;;;;39.20;22.70;;;2.90;93.70;;;;;;4266671;27;20042;-58
2023/12/03 06:04:15;;;;;;;35.83;21.45;;;2.90;93.10;;;;;;4267421;27;20613;-59
2023/12/03 06:06:18;;;;;;;41.30;23.90;;;2.80;93.10;;;;;;4267789;27;20057;-55
2023/12/03 06:08:20;;;;;;;38.88;23.45;;;2.90;93.30;;;;;;4267653;27;20133;-55
2023/12/03 06:10:23;;;;;;;43.17;24.67;;;2.80;93.00;;;;;;4267614;27;20050;-57
2023/12/03 06:12:27;;;;;;;41.70;23.63;;;2.80;93.30;;;;;;4267424;27;20050;-58
2023/12/03 06:14:29;;;;;;;38.40;22.13;;;2.90;93.10;;;;;;4267927;27;20047;-57
2023/12/03 06:16:31;;;;;;;41.78;22.40;;;2.80;93.30;;;;;;4267485;27;20046;-60
2023/12/03 06:18:35;;;;;;;38.38;22.58;;;2.80;93.40;;;;;;4266946;27;20042;-57
2023/12/03 06:20:37;;;;;;;37.40;22.20;;;2.80;93.20;;;;;;4267522;27;20085;-59
2023/12/03 06:22:39;;;;;;;33.30;20.45;;;2.80;93.20;;;;;;4268298;27;20047;-57
2023/12/03 06:24:41;;;;;;;38.10;22.98;;;2.90;93.60;;;;;;4267554;27;20043;-57
2023/12/03 06:26:43;;;;;;;42.47;24.40;;;3.00;93.60;;;;;;4267199;27;20053;-56
2023/12/03 06:28:47;;;;;;;40.28;24.00;;;3.00;93.30;;;;;;4268175;27;20043;-57
2023/12/03 06:30:50;;;;;;;31.13;17.90;;;2.90;93.10;;;;;;4267179;27;20047;-61
2023/12/03 06:32:52;;;;;;;36.33;21.85;;;3.00;92.90;;;;;;4267709;27;20043;-56
2023/12/03 06:34:54;;;;;;;41.90;23.45;;;2.70;93.50;;;;;;4267499;27;20046;-56
2023/12/03 06:36:58;;;;;;;39.30;23.50;;;2.70;93.30;;;;;;4266982;27;20081;-56
2023/12/03 06:39:00;;;;;;;29.55;18.48;;;2.70;93.40;;;;;;4266833;27;20077;-55
2023/12/03 06:41:03;;;;;;;37.75;22.33;;;2.80;93.60;;;;;;4266981;27;20074;-57
2023/12/03 06:43:05;;;;;;;39.22;22.95;;;2.80;93.40;;;;;;4266728;27;20043;-57
2023/12/03 06:45:09;;;;;;;41.33;24.00;;;2.80;93.50;;;;;;4266845;27;20072;-57
2023/12/03 06:47:12;;;;;;;40.42;23.08;;;2.90;93.80;;;;;;4249759;27;20088;-55
2023/12/03 06:49:14;;;;;;;36.00;20.98;;;2.90;93.40;;;;;;4250092;27;20076;-57
2023/12/03 06:51:16;;;;;;;34.88;22.25;;;2.90;94.20;;;;;;4269303;27;20079;-56
2023/12/03 06:53:20;;;;;;;37.10;21.70;;;2.90;93.60;;;;;;4249193;27;20100;-62
2023/12/03 06:55:23;;;;;;;39.85;22.70;;;2.80;93.40;;;;;;4267630;27;20070;-56
2023/12/03 06:57:25;;;;;;;37.80;22.42;;;2.80;93.60;;;;;;4267339;27;20043;-56
2023/12/03 06:59:29;;;;;;;39.17;22.40;;;2.80;93.50;;;;;;4267489;27;20130;-57
2023/12/03 07:01:33;;;;;;;36.80;21.80;;;2.80;94.00;;;;;;4267290;27;20043;-57
2023/12/03 07:03:38;;;;;;;34.05;20.60;;;2.80;93.80;;;;;;4266812;27;20493;-57
2023/12/03 07:05:42;;;;;;;35.45;22.17;;;2.90;93.70;;;;;;4266376;27;20053;-57
2023/12/03 07:07:48;;;;;;;45.70;23.55;;;2.90;93.60;;;;;;4266309;27;20108;-57
2023/12/03 07:09:50;;;;;;;41.55;22.85;;;2.90;93.50;;;;;;4266299;27;20420;-57
2023/12/03 07:11:52;;;;;;;40.63;22.77;;;2.80;93.50;;;;;;4265758;27;20043;-57
2023/12/03 07:13:54;;;;;;;34.88;21.17;;;2.80;93.60;;;;;;4265627;27;20042;-57
2023/12/03 07:15:57;;;;;;;39.28;21.83;;;2.80;93.60;;;;;;4266154;27;20054;-56
2023/12/03 07:18:01;;;;;;;34.47;22.30;;;2.90;93.50;;;;;;4248073;27;20043;-57
2023/12/03 07:20:04;;;;;;;29.13;17.37;;;2.90;93.60;;;;;;4266909;27;20047;-56
2023/12/03 07:22:06;;;;;;;34.83;21.75;;;2.90;93.60;;;;;;4266966;27;20431;-58
2023/12/03 07:24:08;;;;;;;35.70;22.08;;;2.90;93.50;;;;;;4266677;27;20047;-58
2023/12/03 07:26:10;;;;;;;37.10;20.77;;;2.90;93.40;;;;;;4265997;27;20047;-57
2023/12/03 07:28:12;;;;;;;37.70;21.83;;;2.90;93.50;;;;;;4265179;27;20043;-57
2023/12/03 07:30:15;;;;;;;35.65;22.13;;;2.90;93.20;;;;;;4265577;27;20068;-57
2023/12/03 07:32:17;;;;;;;40.33;23.92;;;2.80;93.30;;;;;;4266353;27;20046;-57
2023/12/03 07:34:20;;;;;;;41.97;23.20;;;2.80;94.00;;;;;;4266586;27;20099;-57
2023/12/03 07:36:25;;;;;;;37.78;22.48;;;2.70;93.40;;;;;;4266400;27;20046;-56
2023/12/03 07:38:28;;;;;;;38.90;22.33;;;2.70;93.60;;;;;;4266941;27;20047;-59
2023/12/03 07:40:30;;;;;;;38.17;22.65;;;2.80;93.60;;;;;;4267379;27;20038;-57
2023/12/03 07:42:32;;;;;;;34.03;20.83;;;2.60;93.50;;;;;;4266145;27;20047;-55
2023/12/03 07:44:35;;;;;;;37.55;22.08;;;2.80;93.80;;;;;;4267356;27;20481;-59
2023/12/03 07:46:38;;;;;;;36.85;22.05;;;2.80;93.70;;;;;;4266786;27;20505;-56
2023/12/03 07:48:40;;;;;;;37.03;21.95;;;2.80;93.50;;;;;;4266511;27;20058;-57
2023/12/03 07:50:44;;;;;;;33.22;21.15;;;2.60;93.30;;;;;;4265705;27;20047;-56
2023/12/03 07:52:47;;;;;;;35.60;21.42;;;2.70;93.70;;;;;;4265964;27;20055;-56
2023/12/03 07:54:49;;;;;;;32.80;20.88;;;2.80;93.90;;;;;;4265708;27;20051;-53
2023/12/03 07:56:53;;;;;;;36.55;21.77;;;2.80;93.80;;;;;;4265841;27;20054;-56
2023/12/03 07:58:55;;;;;;;33.00;20.92;;;2.80;93.60;;;;;;4265739;27;20129;-55
2023/12/03 08:01:00;;;;;;;37.88;22.75;;;2.80;93.70;;;;;;4267224;27;20045;-57
2023/12/03 08:03:02;;;;;;;;;;;2.80;93.60;;;;;;4267466;27;20070;-56
2023/12/03 08:05:06;;;;;;;39.08;20.98;;;2.80;93.50;;;;;;4266799;27;19919;-56
2023/12/03 08:07:09;;;;;;;33.92;19.75;;;2.80;93.40;;;;;;4266260;27;20382;-57
2023/12/03 08:09:12;;;;;;;34.40;21.00;;;2.80;94.20;;;;;;4266036;27;20072;-55
2023/12/03 08:11:14;;;;;;;42.63;22.70;;;2.80;94.20;;;;;;4265613;27;20099;-57
2023/12/03 08:13:19;;;;;;;36.97;20.92;;;2.80;94.40;;;;;;4265140;27;20050;-60
2023/12/03 08:15:21;;;;;;;34.85;21.85;;;2.70;94.60;;;;;;4265747;27;20050;-56
2023/12/03 08:17:23;;;;;;;41.55;22.80;;;2.60;94.40;;;;;;4265671;27;20072;-56
2023/12/03 08:19:26;;;;;;;39.47;22.60;;;2.60;94.90;;;;;;4247668;27;20147;-56
2023/12/03 08:21:31;;;;;;;31.95;20.83;;;2.70;94.80;;;;;;4265929;27;20121;-57
2023/12/03 08:23:35;;;;;;;36.15;21.70;;;2.70;95.20;;;;;;4265327;27;20137;-56
2023/12/03 08:25:38;;;;;;;34.90;22.35;;;2.80;95.00;;;;;;4265473;27;20143;-57
2023/12/03 08:27:40;;;;;;;36.47;22.73;;;2.80;95.10;;;;;;4264629;27;20074;-57
2023/12/03 08:29:42;;;;;;;38.15;23.38;;;2.90;95.20;;;;;;4265361;27;20053;-68
2023/12/03 08:31:45;;;;;;;36.38;21.13;;;2.90;95.00;;;;;;4247733;27;20047;-56
2023/12/03 08:33:47;;;;;;;38.28;20.65;;;2.90;94.70;;;;;;4265893;27;20043;-56
2023/12/03 08:35:49;;;;;;;37.42;23.20;;;3.00;95.20;;;;;;4266585;27;20194;-56
2023/12/03 08:37:52;;;;;;;35.50;21.73;;;3.00;94.70;;;;;;4266362;27;20078;-56
2023/12/03 08:39:55;;;;;;;36.65;22.75;;;2.80;94.60;;;;;;4265574;27;20412;-55
2023/12/03 08:42:00;;;;;;;38.17;22.92;;;2.90;95.00;;;;;;4265597;27;20103;-55
2023/12/03 08:44:04;;;;;;;37.75;22.10;;;2.90;94.60;;;;;;4265671;27;20053;-56
2023/12/03 08:46:08;;;;;;;33.53;20.35;;;3.00;94.90;;;;;;4265644;27;20255;-58
2023/12/03 08:48:10;;;;;;;36.00;21.02;;;2.80;94.60;;;;;;4267459;27;20126;-56
2023/12/03 08:50:12;;;;;;;34.20;21.52;;;2.90;94.70;;;;;;4269902;27;20046;-57
2023/12/03 08:52:15;;;;;;;33.47;20.55;;;2.90;94.60;;;;;;4269259;27;20046;-57
2023/12/03 08:54:17;;;;;;;37.97;21.30;;;3.00;95.00;;;;;;4269823;27;20103;-59
2023/12/03 08:56:20;;;;;;;37.28;21.38;;;2.90;94.50;;;;;;4234445;28;20044;-58
2023/12/03 08:58:22;;;;;;;32.00;20.08;;;3.00;94.90;;;;;;4234437;28;20086;-58
2023/12/03 09:00:25;;;;;;;36.55;21.65;;;3.00;94.70;;;;;;4235203;28;20052;-57
2023/12/03 09:02:27;;;;;;;33.65;20.77;;;2.90;94.50;;;;;;4233929;28;20096;-58
2023/12/03 09:04:32;;;;;;;32.90;20.52;;;3.10;94.70;;;;;;4234140;28;20075;-57
2023/12/03 09:06:34;;;;;;;32.47;20.75;;;3.00;94.70;;;;;;4234295;28;20054;-57
2023/12/03 09:08:47;;;;;;;35.15;20.45;;;3.00;94.20;;;;;;4234191;28;20093;-57
2023/12/03 09:10:49;;;;;;;35.92;20.52;;;3.00;94.50;;;;;;4233719;28;20079;-57
2023/12/03 09:12:53;;;;;;;33.20;20.30;;;3.10;93.90;;;;;;4234117;28;20040;-56
2023/12/03 09:14:55;;;;;;;31.20;19.50;;;3.00;94.10;;;;;;4234257;28;20062;-57
2023/12/03 09:16:58;;;;;;;35.85;21.85;;;3.00;93.80;;;;;;4232905;28;20193;-56
2023/12/03 09:19:00;;;;;;;36.35;20.60;;;3.10;94.00;;;;;;4235393;28;20043;-63
2023/12/03 09:21:02;;;;;;;33.80;19.52;;;3.00;93.80;;;;;;4234022;28;20051;-57
2023/12/03 09:23:05;;;;;;;29.50;18.85;;;3.20;93.80;;;;;;4234264;28;20133;-56
2023/12/03 09:25:07;;;;;;;31.55;18.45;;;3.20;93.70;;;;;;4234353;28;20052;-57
2023/12/03 09:27:09;;;;;;;35.63;19.88;;;3.10;93.80;;;;;;4234584;28;20052;-56
2023/12/03 09:29:13;;;;;;;31.55;19.70;;;3.10;93.70;;;;;;4234635;28;20050;-56
2023/12/03 09:31:16;;;;;;;32.47;19.40;;;3.20;93.70;;;;;;4235365;28;20405;-55
2023/12/03 09:33:18;;;;;;;31.55;18.58;;;3.10;93.50;;;;;;4235594;28;20043;-55
2023/12/03 09:35:21;;;;;;;34.15;19.65;;;3.10;93.70;;;;;;4235444;28;20437;-57
2023/12/03 09:37:24;;;;;;;32.17;17.85;;;3.00;93.70;;;;;;4235254;28;20086;-58
2023/12/03 09:39:28;;;;;;;32.90;18.63;;;3.00;93.70;;;;;;4235905;28;20103;-60
2023/12/03 09:41:33;;;;;;;29.05;18.08;;;3.20;93.50;;;;;;4237096;28;20465;-58
2023/12/03 09:43:38;;;;;;;30.67;17.90;;;3.30;93.60;;;;;;4235076;28;20048;-63
2023/12/03 09:45:43;;;;;;;29.35;18.85;;;3.20;93.40;;;;;;4235428;28;20043;-58
2023/12/03 09:47:51;;;;;;;27.25;17.05;;;3.20;93.30;;;;;;4235085;28;20183;-56
2023/12/03 09:49:55;;;;;;;27.85;17.77;;;3.20;93.30;;;;;;4234994;28;20597;-57
2023/12/03 09:52:00;;;;;;;21.83;12.95;;;3.10;93.00;;;;;;4234736;28;20109;-57
2023/12/03 09:54:05;;;;;;;26.20;17.45;;;3.20;93.70;;;;;;4234111;27;20093;-58
2023/12/03 09:56:07;;;;;;;;;;;3.10;93.00;;;;;;4266766;27;20047;-56
2023/12/03 09:58:14;;;;;;;32.28;18.48;;;3.10;93.20;;;;;;4269315;27;19966;-57
2023/12/03 10:00:18;;;;;;;28.25;17.60;;;3.20;93.30;;;;;;4250317;27;20117;-56
2023/12/03 10:02:26;;;;;;;23.77;14.35;;;3.10;93.40;;;;;;4269625;27;20043;-64
2023/12/03 10:04:29;;;;;;;29.27;18.75;;;3.10;93.00;;;;;;4269594;27;20071;-56
2023/12/03 10:06:36;;;;;;;32.22;17.33;;;3.00;93.00;;;;;;4269207;27;20043;-61
2023/12/03 10:08:39;;;;;;;27.30;16.02;;;3.10;93.20;;;;;;4249971;27;20097;-56
2023/12/03 10:10:46;;;;;;;27.63;17.00;;;3.80;93.60;;;;;;4268896;27;20053;-59
2023/12/03 10:12:50;;;;;;;32.45;18.30;;;3.70;92.10;;;;;;4268351;27;20121;-58
2023/12/03 10:14:53;;;;;;;28.85;18.25;;;3.50;92.50;;;;;;4268515;27;20074;-57
2023/12/03 10:16:55;;;;;;;29.35;17.63;;;3.60;92.70;;;;;;4268596;27;20362;-58
2023/12/03 10:18:59;;;;;;;30.40;17.20;;;3.60;92.40;;;;;;4250053;27;20121;-56
2023/12/03 10:21:06;;;;;;;27.20;17.65;;;3.50;92.50;;;;;;4268473;27;20550;-60
2023/12/03 10:23:13;;;;;;;30.58;17.98;;;3.50;92.50;;;;;;4268728;27;20133;-56
2023/12/03 10:25:26;;;;;;;27.50;17.25;;;3.50;92.50;;;;;;4268576;27;20043;-57
2023/12/03 10:27:29;;;;;;;26.58;16.52;;;3.60;92.80;;;;;;4249262;27;20109;-57
2023/12/03 10:29:32;;;;;;;26.27;16.27;;;3.60;92.40;;;;;;4267976;27;20151;-62
2023/12/03 10:31:34;;;;;;;30.50;17.92;;;3.60;92.40;;;;;;4268293;27;20125;-56
2023/12/03 10:33:38;;;;;;;29.67;17.13;;;3.60;92.70;;;;;;4268547;27;20046;-56